Round Lake, New York
Current Conditions -  °F | °C
As of 2:51 AM on Friday 24 Oct 2014 (Local Time) from KALB Reporting Station
Light Rain Light Rain  
Wind Chill: 44°   Ceiling: 900
Heat Index: 46°   Visibility: 4mi
Dew Point: 44°   Wind: 5mph
Humidity: 93%   Direction: 340°NNW
Pressure: 29.83"   Gusts: NA
Location:  42.94°N, 73.79°W
Report Text: KALB 240651Z 34004KT 4SM -RA BR OVC009 08/07 A2983 RMK AO2 DZE05RAB05 SLP102 P0001 T00780067
Loading
Personal Weather Stations






























Interactive Weather Map
Tropical Storm Tracking
New forecast layout! Learn more

10-Day Weather Forecast

Advertisements
Track Severe Weather on mobile